Main page
METAR-TAF:

METAR-TAF

Airports :

RAF Valley

Valley, Wales

latitude: 53-15N, longitude: 004-32W, elevation: 1 m

Current weather observation

The report was made 1 hour and 6 minutes ago, at 22:50 UTC
Wind 8 kt from the West/Northwest
Temperature 15°C
Humidity 94%
Pressure 1008 hPa
Visibility 10 km or more

METAR: EGOV 302250Z AUTO 29008KT 9999 FEW018/// BKN025/// 15/14 Q1008 RERA

Time: 00:56 (23:56 UTC)

Forecast

The report was made 10 hours and 10 minutes ago, at 13:46 UTC
Forecast valid from 30 at 15 UTC to 30 at 18 UTC
Wind 12 kt from the North/Northwest
Visibility 10 km or more
Few clouds at a height of 900 ft
Broken clouds at a height of 4500 ft
Temporary
from 30 at 15 UTC to 30 at 18 UTC
Visibility: 7000 m
Scattered clouds at a height of 1300 ft
rain showers

TAF: EGOV 301346Z 3015/3018 33012KT 9999 FEW009 BKN045 TEMPO 3015/3018 7000 SHRA SCT013

Weather observations and forecasts of more than 4000 airports (METAR and TAF reports).

The available stations are represented by yellow and red dots on the map.

Hover mouse over dot to see the name of the station.

Then click to see weather observations and forecasts.

To change the map : click on the green buttons with a black cross to zoom in, on the green button with a dash to zoom out, or on the green arrows for adjacent maps.


METAR-TAF: